5PN8 weather

Lincoln Farms Airport
Calvin, Pennsylvania, United States

Public forecast

Using degrees Fahrenheit for public forecast. Weather courtesy of forecast.io.

METAR (pilot weather report)

Closest report is Altoona Blair County Airport, 12.7 nm (23.6 km) W. Retrieved 2019/05/19 21:41 UTC (55 minutes ago):

KAOO 192141Z AUTO 19013G21KT 10SM VCTS -RA FEW041 BKN090 OVC110 23/19 A2988 RMK AO2 PK WND 23030/2108 LTG DSNT ALQDS RAB04 TSB08E35 P0008 T02280189

TAF (pilot weather forecast)

Closest forecast is Altoona Blair County Airport, 12.7 nm (23.6 km) W. Retrieved 2019/05/19 18:24 UTC (4 hours ago):

TAF KAOO 191720Z 1918/2018 18010G20KT P6SM BKN045 TEMPO 1919/1921 3SM TSRA BR OVC025CB FM200000 22005KT P6SM BKN060 FM201500 25010KT P6SM SCT050